Portada
METAR-TAF:

METAR-TAF

Aeropuertos :

Aeropuerto Internacional Fua'amotu

Tongatapu, Tonga

latitud: 21-14S, longitud: 175-09W, altitud: 38 m

Observación

El informe se hizo hace 1 hora y 5 minutos, a las 03:00 UTC
Viento 5 kt del este-noreste
Temperatura 30°C
Humedad 75%
Presión 1010 hPa
Visibilidad 10 km o más
Escasas nubes a una altura de 1800 ft
Nubes dispersas a una altura de 28000 ft

METAR: NFTF 270300Z 06005KT 9999 FEW018 SCT280 30/25 Q1010

Hora: 17:05 (04:05 UTC)

Pronóstico

El informe se hizo hace 4 horas y 45 minutos, a las 23:20 UTC
Pronóstico válido del 27 a las 00 UTC al 27 a las 24 UTC
Viento 8 kt del este-noreste
Visibilidad 10 km o más
Nubes dispersas a una altura de 1800 ft

TAF: NFTF 262320Z 2700/2724 06008KT 9999 SCT018

Observaciones y pronósticos meteorológicos de más de 4000 aeropuertos (mensajes METAR y TAF).

Los puntos amarillos y rojos representan las estaciones disponibles.

Ponga el ratón en el punto deseado para ver el nombre de la estación.

Haga clic para ver las observaciones y los pronósticos meteorológicos.

Para cambiar el mapa : haga clic en los botones verdes con una cruz de color negro para hacer un zoom, en el botón verde con un guión para alejar o en las flechas verdes para mapas adyacentes.


METAR-TAF: